Time;durP1;ratioP1;P1;durP2;ratioP2;P2;SDS_P1;SDS_P2;PMS_P1;PMS_P2;Temp;Humidity;BMP_temperature;BMP_pressure;BME280_temperature;BME280_humidity;BME280_pressure;Samples;Min_cycle;Max_cycle;Signal;HPM_P1;HPM_P2
2021/11/25 00:00:51;;;;;;;22.50;11.83;;;-2.00;99.90;;;;;;2073509;28;20192;-61
2021/11/25 00:01:52;;;;;;;21.27;10.85;;;-2.10;99.90;;;;;;2073099;28;20192;-59
2021/11/25 00:02:53;;;;;;;21.03;11.17;;;-2.10;99.90;;;;;;2073404;28;20658;-60
2021/11/25 00:03:54;;;;;;;23.00;11.73;;;-2.10;99.90;;;;;;2073411;28;20203;-58
2021/11/25 00:04:55;;;;;;;23.52;12.07;;;-2.10;99.90;;;;;;2073386;28;20268;-61
2021/11/25 00:05:56;;;;;;;20.33;11.57;;;-2.20;99.90;;;;;;2073179;28;20562;-61
2021/11/25 00:06:56;;;;;;;23.23;11.53;;;-2.20;99.90;;;;;;2072987;28;20273;-60
2021/11/25 00:07:58;;;;;;;19.83;11.50;;;-2.30;99.90;;;;;;2073472;28;20273;-58
2021/11/25 00:08:59;;;;;;;17.02;10.15;;;-2.30;99.90;;;;;;2072952;28;20268;-60
2021/11/25 00:09:59;;;;;;;18.73;10.43;;;-2.30;99.90;;;;;;2073273;28;20213;-59
2021/11/25 00:11:00;;;;;;;17.63;9.67;;;-2.40;99.90;;;;;;2073396;28;20180;-60
2021/11/25 00:12:01;;;;;;;18.73;9.37;;;-2.30;99.90;;;;;;2073312;28;20645;-59
2021/11/25 00:13:03;;;;;;;19.90;10.67;;;-2.30;99.90;;;;;;2073351;28;20539;-60
2021/11/25 00:14:04;;;;;;;18.60;10.07;;;-2.30;99.90;;;;;;2073398;28;20553;-60
2021/11/25 00:15:07;;;;;;;18.98;10.50;;;-2.20;99.90;;;;;;2073317;28;20184;-59
2021/11/25 00:16:08;;;;;;;21.98;11.10;;;-2.20;99.90;;;;;;2073408;28;20193;-59
2021/11/25 00:17:08;;;;;;;19.83;10.27;;;-2.20;99.90;;;;;;2072949;28;20273;-61
2021/11/25 00:18:09;;;;;;;17.80;10.40;;;-2.20;99.90;;;;;;2073262;28;20234;-60
2021/11/25 00:19:10;;;;;;;19.95;9.93;;;-2.20;99.90;;;;;;2073390;28;20697;-61
2021/11/25 00:20:12;;;;;;;18.90;10.00;;;-2.10;99.90;;;;;;2073385;28;20240;-59
2021/11/25 00:21:13;;;;;;;19.88;10.18;;;-2.10;99.90;;;;;;2073255;28;20188;-60
2021/11/25 00:22:14;;;;;;;19.97;11.10;;;-2.10;99.90;;;;;;2073265;28;20805;-59
2021/11/25 00:23:15;;;;;;;17.23;10.03;;;-2.10;99.90;;;;;;2073101;28;20200;-59
2021/11/25 00:24:15;;;;;;;17.23;9.43;;;-2.10;99.90;;;;;;2073368;28;20213;-59
2021/11/25 00:25:16;;;;;;;21.00;10.97;;;-2.10;99.90;;;;;;2073196;28;20185;-61
2021/11/25 00:26:17;;;;;;;21.75;10.63;;;-2.20;99.90;;;;;;2073207;28;20181;-60
2021/11/25 00:27:18;;;;;;;20.60;10.63;;;-2.20;99.90;;;;;;2072944;28;20232;-60
2021/11/25 00:28:19;;;;;;;18.57;10.13;;;-2.20;99.90;;;;;;2073173;28;20763;-59
2021/11/25 00:29:19;;;;;;;17.13;9.63;;;-2.30;99.90;;;;;;2073066;28;20181;-61
2021/11/25 00:30:21;;;;;;;20.60;10.40;;;-2.30;99.90;;;;;;2073275;28;20177;-61
2021/11/25 00:31:22;;;;;;;18.08;10.32;;;-2.30;99.90;;;;;;2073116;28;20177;-60
2021/11/25 00:32:22;;;;;;;17.83;10.30;;;-2.30;99.90;;;;;;2073182;28;20180;-61
2021/11/25 00:33:23;;;;;;;19.30;10.03;;;-2.30;99.90;;;;;;2073234;28;20279;-59
2021/11/25 00:34:24;;;;;;;21.10;10.97;;;-2.40;99.90;;;;;;2064406;28;20660;-58
2021/11/25 00:35:25;;;;;;;18.20;9.93;;;-2.40;99.90;;;;;;2064470;28;20564;-60
2021/11/25 00:36:25;;;;;;;21.10;10.97;;;-2.40;99.90;;;;;;2073252;28;20199;-61
2021/11/25 00:37:26;;;;;;;18.47;10.53;;;-2.40;99.90;;;;;;2072807;28;20228;-59
2021/11/25 00:38:27;;;;;;;20.60;10.03;;;-2.40;99.90;;;;;;2073188;28;20186;-61
2021/11/25 00:39:28;;;;;;;17.97;10.63;;;-2.30;99.90;;;;;;2064434;28;20189;-59
2021/11/25 00:40:28;;;;;;;18.03;10.10;;;-2.30;99.90;;;;;;2064374;28;20189;-61
2021/11/25 00:41:29;;;;;;;18.83;9.47;;;-2.30;99.90;;;;;;2073255;28;20234;-61
2021/11/25 00:42:30;;;;;;;20.37;10.57;;;-2.30;99.90;;;;;;2073112;28;20181;-60
2021/11/25 00:43:30;;;;;;;15.80;9.17;;;-2.30;99.90;;;;;;2073128;28;20665;-60
2021/11/25 00:44:31;;;;;;;22.50;10.93;;;-2.30;99.90;;;;;;2073234;28;20236;-61
2021/11/25 00:45:32;;;;;;;19.20;11.20;;;-2.30;99.90;;;;;;2073212;28;20182;-60
2021/11/25 00:46:33;;;;;;;23.17;11.50;;;-2.40;99.90;;;;;;2073094;28;20192;-63
2021/11/25 00:47:33;;;;;;;19.83;10.97;;;-2.40;99.90;;;;;;2073014;28;20227;-61
2021/11/25 00:48:34;;;;;;;18.13;10.73;;;-2.40;99.90;;;;;;2073046;28;20196;-60
2021/11/25 00:49:35;;;;;;;22.67;11.77;;;-2.40;99.90;;;;;;2072917;28;20219;-59
2021/11/25 00:50:36;;;;;;;21.43;11.20;;;-2.40;99.90;;;;;;2073118;28;20196;-61
2021/11/25 00:51:37;;;;;;;29.13;11.90;;;-2.40;99.90;;;;;;2073065;28;20235;-60
2021/11/25 00:52:39;;;;;;;27.58;13.10;;;-2.40;99.90;;;;;;2073053;28;20197;-60
2021/11/25 00:53:39;;;;;;;24.63;11.55;;;-2.40;99.90;;;;;;2073019;28;20308;-61
2021/11/25 00:54:41;;;;;;;24.53;11.10;;;-2.40;99.90;;;;;;2072992;28;20195;-61
2021/11/25 00:55:43;;;;;;;22.67;10.75;;;-2.40;99.90;;;;;;2073173;28;20189;-61
2021/11/25 00:56:44;;;;;;;20.27;10.18;;;-2.50;99.90;;;;;;2072961;28;20193;-61
2021/11/25 00:57:44;;;;;;;20.70;10.67;;;-2.40;99.90;;;;;;2072741;28;20234;-59
2021/11/25 00:58:45;;;;;;;20.10;10.88;;;-2.40;99.90;;;;;;2072973;28;20184;-61
2021/11/25 00:59:46;;;;;;;22.77;11.10;;;-2.50;99.90;;;;;;2073076;28;20213;-61
2021/11/25 01:00:48;;;;;;;24.50;11.20;;;-2.50;99.90;;;;;;2073125;28;20219;-61
2021/11/25 01:01:49;;;;;;;20.92;11.23;;;-2.50;99.90;;;;;;2073155;28;20237;-60
2021/11/25 01:02:51;;;;;;;20.77;10.87;;;-2.60;99.90;;;;;;2073100;28;20189;-61
2021/11/25 01:03:52;;;;;;;27.35;10.77;;;-2.60;99.90;;;;;;2073051;28;20291;-61
2021/11/25 01:04:52;;;;;;;22.03;11.30;;;-2.60;99.90;;;;;;2072950;28;20215;-60
2021/11/25 01:05:53;;;;;;;20.70;11.27;;;-2.60;99.90;;;;;;2073083;28;20559;-60
2021/11/25 01:06:54;;;;;;;25.23;11.73;;;-2.60;99.90;;;;;;2072771;28;20193;-60
2021/11/25 01:07:54;;;;;;;22.00;11.33;;;-2.60;99.90;;;;;;2073033;28;20319;-61
2021/11/25 01:08:55;;;;;;;24.07;11.07;;;-2.60;99.90;;;;;;2073054;28;20742;-61
2021/11/25 01:09:56;;;;;;;23.30;10.97;;;-2.60;99.90;;;;;;2073013;28;20202;-62
2021/11/25 01:10:56;;;;;;;19.60;9.77;;;-2.60;99.90;;;;;;2072905;28;20520;-60
2021/11/25 01:12:03;;;;;;;22.83;10.93;;;-2.60;99.90;;;;;;2072904;28;20181;-60
2021/11/25 01:13:04;;;;;;;20.95;10.98;;;-2.70;99.90;;;;;;2072995;28;20198;-61
2021/11/25 01:14:05;;;;;;;23.25;10.52;;;-2.70;99.90;;;;;;2073081;28;20265;-58
2021/11/25 01:15:09;;;;;;;24.80;11.47;;;-2.70;99.90;;;;;;2072869;28;20171;-59
2021/11/25 01:16:10;;;;;;;21.67;10.68;;;-2.80;99.90;;;;;;2072995;28;20188;-60
2021/11/25 01:17:11;;;;;;;23.43;11.30;;;-2.80;99.90;;;;;;2072629;28;20187;-60
2021/11/25 01:18:15;;;;;;;28.27;12.23;;;-2.80;99.90;;;;;;2073054;28;20214;-61
2021/11/25 01:19:15;;;;;;;22.80;11.05;;;-2.80;99.90;;;;;;2072859;28;20679;-60
2021/11/25 01:20:17;;;;;;;20.20;10.20;;;-2.90;99.90;;;;;;2073109;28;20196;-61
2021/11/25 01:21:18;;;;;;;19.75;10.40;;;-2.90;99.90;;;;;;2073715;28;20190;-61
2021/11/25 01:22:19;;;;;;;20.77;9.77;;;-2.90;99.90;;;;;;2074494;28;20262;-60
2021/11/25 01:23:25;;;;;;;19.93;10.80;;;-2.90;99.90;;;;;;2074769;28;20234;-60
2021/11/25 01:24:25;;;;;;;16.70;8.88;;;-2.90;99.90;;;;;;2074664;28;20671;-61
2021/11/25 01:25:27;;;;;;;17.97;9.03;;;-3.00;99.90;;;;;;2074415;28;20214;-61
2021/11/25 01:26:28;;;;;;;17.02;9.10;;;-3.00;99.90;;;;;;2071469;28;20592;-58
2021/11/25 01:27:28;;;;;;;13.53;8.40;;;-3.10;99.90;;;;;;2066046;28;20213;-61
2021/11/25 01:28:30;;;;;;;14.23;8.43;;;-3.10;99.90;;;;;;2066428;28;20677;-61
2021/11/25 01:29:31;;;;;;;16.15;8.13;;;-3.10;99.90;;;;;;2066491;28;20223;-61
2021/11/25 01:30:32;;;;;;;17.20;8.63;;;-3.10;99.90;;;;;;2066541;28;20188;-61
2021/11/25 01:31:33;;;;;;;15.77;8.57;;;-3.10;99.90;;;;;;2066404;28;20180;-58
2021/11/25 01:32:34;;;;;;;15.13;9.00;;;-3.20;99.90;;;;;;2066511;28;20286;-60
2021/11/25 01:33:35;;;;;;;12.35;8.43;;;-3.20;99.90;;;;;;2066421;28;20676;-60
2021/11/25 01:34:36;;;;;;;17.23;9.07;;;-3.20;99.90;;;;;;2066404;28;20235;-60
2021/11/25 01:35:38;;;;;;;16.93;8.77;;;-3.20;99.90;;;;;;2066337;28;20199;-61
2021/11/25 01:36:39;;;;;;;19.63;9.98;;;-3.20;99.90;;;;;;2066412;28;20187;-61
2021/11/25 01:37:40;;;;;;;14.43;8.77;;;-3.20;99.90;;;;;;2066061;28;20600;-59
2021/11/25 01:38:40;;;;;;;15.60;9.23;;;-3.20;99.90;;;;;;2066411;28;20188;-61
2021/11/25 01:39:41;;;;;;;20.17;9.17;;;-3.20;99.90;;;;;;2066361;28;20741;-60
2021/11/25 01:40:46;;;;;;;15.97;9.03;;;-3.10;99.90;;;;;;2066315;28;20195;-59
2021/11/25 01:41:47;;;;;;;17.00;8.77;;;-3.10;99.90;;;;;;2057565;28;20911;-60
2021/11/25 01:42:48;;;;;;;15.73;8.43;;;-3.10;99.90;;;;;;2057887;28;20183;-60
2021/11/25 01:43:49;;;;;;;17.17;8.80;;;-3.10;99.90;;;;;;2066210;28;20183;-61
2021/11/25 01:44:50;;;;;;;16.33;8.53;;;-3.10;99.90;;;;;;2066194;28;20188;-61
2021/11/25 01:45:53;;;;;;;13.60;8.17;;;-3.10;99.90;;;;;;2066458;28;20234;-61
2021/11/25 01:46:54;;;;;;;17.70;8.38;;;-3.10;99.90;;;;;;2065734;28;20267;-58
2021/11/25 01:47:57;;;;;;;14.83;7.97;;;-3.10;99.90;;;;;;2066241;28;20560;-61
2021/11/25 01:48:57;;;;;;;13.68;8.13;;;-3.10;99.90;;;;;;2057469;28;20190;-59
2021/11/25 01:49:58;;;;;;;12.93;7.90;;;-3.10;99.90;;;;;;2057417;28;20627;-59
2021/11/25 01:50:59;;;;;;;12.90;8.47;;;-3.10;99.90;;;;;;2057331;28;20180;-61
2021/11/25 01:51:59;;;;;;;14.07;7.90;;;-3.10;99.90;;;;;;2057525;28;20180;-59
2021/11/25 01:53:03;;;;;;;13.83;8.33;;;-3.10;99.90;;;;;;2066066;28;20181;-60
2021/11/25 01:54:04;;;;;;;16.65;8.55;;;-3.20;99.90;;;;;;2066023;28;20522;-58
2021/11/25 01:55:05;;;;;;;15.03;8.37;;;-3.20;99.90;;;;;;2066045;28;20186;-59
2021/11/25 01:56:07;;;;;;;14.85;8.30;;;-3.20;99.90;;;;;;2057376;28;20439;-61
2021/11/25 01:57:08;;;;;;;17.00;8.70;;;-3.20;99.90;;;;;;2057292;28;20183;-61
2021/11/25 01:58:09;;;;;;;16.23;8.33;;;-3.20;99.90;;;;;;2066095;28;20266;-59
2021/11/25 01:59:09;;;;;;;15.53;7.97;;;-3.20;99.90;;;;;;2066029;28;20246;-62
2021/11/25 02:00:37;;;;;;;12.93;8.10;;;-3.20;99.90;;;;;;2066058;28;20359;-60
2021/11/25 02:01:37;;;;;;;14.50;8.02;;;-3.20;99.90;;;;;;2057436;28;20559;-61
2021/11/25 02:02:38;;;;;;;12.13;7.40;;;-3.20;99.90;;;;;;2057379;28;20191;-59
2021/11/25 02:03:40;;;;;;;13.88;8.23;;;-3.20;99.90;;;;;;2065966;28;20270;-61
2021/11/25 02:04:42;;;;;;;11.13;6.85;;;-3.20;99.90;;;;;;2057181;28;20184;-61
2021/11/25 02:05:43;;;;;;;15.60;8.10;;;-3.20;99.90;;;;;;2057469;28;20264;-61
2021/11/25 02:06:44;;;;;;;13.38;7.72;;;-3.30;99.90;;;;;;2065853;28;20198;-61
2021/11/25 02:07:45;;;;;;;14.17;8.33;;;-3.30;99.90;;;;;;2065749;28;20227;-61
2021/11/25 02:08:46;;;;;;;12.73;7.67;;;-3.40;99.90;;;;;;2065997;28;20196;-61
2021/11/25 02:09:47;;;;;;;13.52;8.38;;;-3.40;99.90;;;;;;2065688;28;20217;-61
2021/11/25 02:10:51;;;;;;;14.75;7.70;;;-3.40;99.90;;;;;;2065933;28;20189;-61
2021/11/25 02:11:52;;;;;;;15.38;8.50;;;-3.40;99.90;;;;;;2065727;28;20183;-60
2021/11/25 02:12:53;;;;;;;15.13;8.55;;;-3.40;99.90;;;;;;2065964;28;20179;-61
2021/11/25 02:13:54;;;;;;;17.27;9.27;;;-3.40;99.90;;;;;;2065974;28;20592;-61
2021/11/25 02:14:54;;;;;;;18.23;8.57;;;-3.50;99.90;;;;;;2065860;28;20424;-61
2021/11/25 02:15:56;;;;;;;15.27;8.13;;;-3.50;99.90;;;;;;2065861;28;20182;-61
2021/11/25 02:16:57;;;;;;;15.45;8.40;;;-3.50;99.90;;;;;;2065748;28;20175;-60
2021/11/25 02:17:58;;;;;;;18.20;8.73;;;-3.40;99.90;;;;;;2065810;28;20185;-61
2021/11/25 02:19:00;;;;;;;16.85;8.55;;;-3.50;99.90;;;;;;2065994;28;20194;-60
2021/11/25 02:20:02;;;;;;;14.55;8.63;;;-3.40;99.90;;;;;;2065815;28;20182;-60
2021/11/25 02:21:04;;;;;;;12.32;7.78;;;-3.40;99.70;;;;;;2065729;28;20549;-61
2021/11/25 02:22:05;;;;;;;17.33;8.20;;;-3.50;99.50;;;;;;2065758;28;20561;-60
2021/11/25 02:23:08;;;;;;;11.67;7.30;;;-3.50;99.50;;;;;;2057157;28;20183;-61
2021/11/25 02:24:09;;;;;;;15.15;8.43;;;-3.50;99.40;;;;;;2057569;28;20611;-60
2021/11/25 02:25:14;;;;;;;15.90;8.23;;;-3.50;99.30;;;;;;2065869;28;20666;-60
2021/11/25 02:26:14;;;;;;;14.20;7.45;;;-3.50;99.20;;;;;;2065686;28;20541;-61
2021/11/25 02:27:21;;;;;;;13.77;7.50;;;-3.50;99.20;;;;;;2065591;28;20204;-61
2021/11/25 02:28:28;;;;;;;15.18;8.05;;;-3.50;99.40;;;;;;2065805;28;20648;-61
2021/11/25 02:29:29;;;;;;;14.73;7.63;;;-3.50;99.50;;;;;;2065757;28;20184;-58
2021/11/25 02:30:31;;;;;;;15.17;8.00;;;-3.50;99.70;;;;;;2065775;28;20176;-59
2021/11/25 02:31:32;;;;;;;14.43;7.30;;;-3.50;99.70;;;;;;2065530;28;20266;-59
2021/11/25 02:32:37;;;;;;;13.68;7.43;;;-3.50;99.70;;;;;;2065638;28;20315;-61
2021/11/25 02:33:40;;;;;;;16.33;8.40;;;-3.50;99.60;;;;;;2065760;28;20275;-61
2021/11/25 02:34:40;;;;;;;14.95;8.52;;;-3.50;99.90;;;;;;2065731;28;20185;-61
2021/11/25 02:35:42;;;;;;;15.50;8.63;;;-3.50;99.90;;;;;;2065856;28;20219;-61
2021/11/25 02:36:43;;;;;;;14.43;7.72;;;-3.50;99.90;;;;;;2065599;28;20179;-61
2021/11/25 02:37:45;;;;;;;17.57;8.77;;;-3.50;99.90;;;;;;2056809;28;20200;-60
2021/11/25 02:38:45;;;;;;;13.15;8.40;;;-3.50;99.90;;;;;;2057250;28;20183;-60
2021/11/25 02:39:47;;;;;;;15.47;7.70;;;-3.50;99.90;;;;;;2065812;28;20183;-61
2021/11/25 02:40:54;;;;;;;15.10;7.18;;;-3.50;99.90;;;;;;2065628;28;20187;-61
2021/11/25 02:41:55;;;;;;;13.30;7.82;;;-3.50;99.90;;;;;;2065608;28;20186;-61
2021/11/25 02:43:00;;;;;;;12.17;8.03;;;-3.40;99.90;;;;;;2065582;28;20234;-61
2021/11/25 02:44:02;;;;;;;16.23;8.18;;;-3.50;99.90;;;;;;2057100;28;20178;-60
2021/11/25 02:45:03;;;;;;;13.93;7.40;;;-3.50;99.90;;;;;;2057178;28;20331;-61
2021/11/25 02:46:09;;;;;;;13.07;7.73;;;-3.40;99.90;;;;;;2065842;28;20190;-61
2021/11/25 02:47:10;;;;;;;13.13;7.60;;;-3.50;99.80;;;;;;2065249;28;20452;-61
2021/11/25 02:48:13;;;;;;;13.70;7.53;;;-3.50;99.50;;;;;;2065720;28;20188;-59
2021/11/25 02:49:13;;;;;;;14.48;7.60;;;-3.50;99.50;;;;;;2065564;28;20191;-59
2021/11/25 02:50:17;;;;;;;14.60;7.93;;;-3.50;99.60;;;;;;2065601;28;20214;-61
2021/11/25 02:51:25;;;;;;;13.27;7.80;;;-3.50;99.40;;;;;;2065550;28;20179;-61
2021/11/25 02:52:26;;;;;;;16.98;7.72;;;-3.50;99.20;;;;;;2065627;28;20183;-59
2021/11/25 02:53:31;;;;;;;15.90;8.00;;;-3.50;99.10;;;;;;2065555;28;20206;-61
2021/11/25 02:54:32;;;;;;;13.68;8.10;;;-3.50;99.20;;;;;;2065585;28;20174;-61
2021/11/25 02:55:33;;;;;;;13.93;7.63;;;-3.60;99.00;;;;;;2065490;28;20205;-61
2021/11/25 02:56:34;;;;;;;13.40;7.33;;;-3.60;98.60;;;;;;2065557;28;20957;-61
2021/11/25 02:57:37;;;;;;;13.53;7.80;;;-3.60;98.60;;;;;;2065231;28;20467;-61
2021/11/25 02:58:40;;;;;;;14.60;8.10;;;-3.60;98.80;;;;;;2065580;28;20180;-62
2021/11/25 02:59:41;;;;;;;12.70;7.35;;;-3.60;98.70;;;;;;2065597;28;20199;-60
2021/11/25 03:00:45;;;;;;;14.88;7.72;;;-3.60;98.70;;;;;;2065705;28;20598;-60
2021/11/25 03:01:46;;;;;;;14.90;7.82;;;-3.60;98.90;;;;;;2065604;28;20191;-61
2021/11/25 03:03:13;;;;;;;12.40;7.40;;;-3.60;98.90;;;;;;2065766;28;20587;-61
2021/11/25 03:04:14;;;;;;;12.43;6.43;;;-3.60;99.10;;;;;;2065573;28;20183;-61
2021/11/25 03:05:15;;;;;;;16.70;7.97;;;-3.60;99.20;;;;;;2065347;28;20245;-61
2021/11/25 03:06:16;;;;;;;16.53;7.03;;;-3.60;99.20;;;;;;2065466;28;20187;-61
2021/11/25 03:07:17;;;;;;;14.52;7.50;;;-3.60;99.10;;;;;;2065194;28;20291;-62
2021/11/25 03:08:21;;;;;;;15.53;7.80;;;-3.70;99.00;;;;;;2065562;28;20187;-61
2021/11/25 03:09:21;;;;;;;10.43;6.30;;;-3.70;99.00;;;;;;2065388;28;20188;-61
2021/11/25 03:10:22;;;;;;;14.03;7.37;;;-3.60;99.00;;;;;;2065658;28;20208;-61
2021/11/25 03:11:26;;;;;;;12.38;6.70;;;-3.60;99.00;;;;;;2065481;28;20202;-61
2021/11/25 03:12:26;;;;;;;12.50;7.55;;;-3.70;98.70;;;;;;2065584;28;20182;-62
2021/11/25 03:13:29;;;;;;;18.37;8.53;;;-3.70;98.40;;;;;;2065461;28;20534;-61
2021/11/25 03:14:29;;;;;;;14.63;7.43;;;-3.70;98.60;;;;;;2065419;28;20178;-60
2021/11/25 03:15:33;;;;;;;12.27;6.90;;;-3.70;98.80;;;;;;2065492;28;20262;-62
2021/11/25 03:16:34;;;;;;;11.82;6.93;;;-3.80;98.80;;;;;;2065515;28;20183;-61
2021/11/25 03:17:38;;;;;;;13.20;7.45;;;-3.80;98.80;;;;;;2065200;28;20206;-62
2021/11/25 03:18:40;;;;;;;10.10;6.40;;;-3.80;98.70;;;;;;2065528;28;20178;-61
2021/11/25 03:19:41;;;;;;;16.63;7.85;;;-3.80;98.80;;;;;;2063854;28;20192;-61
2021/11/25 03:20:45;;;;;;;11.97;6.23;;;-3.70;98.90;;;;;;2065426;28;20183;-61
2021/11/25 03:21:45;;;;;;;13.60;7.75;;;-3.80;98.90;;;;;;2065434;28;20201;-60
2021/11/25 03:22:46;;;;;;;12.87;7.27;;;-3.80;99.00;;;;;;2065516;28;20194;-62
2021/11/25 03:23:49;;;;;;;11.87;6.67;;;-3.80;99.20;;;;;;2065445;28;20194;-60
2021/11/25 03:24:50;;;;;;;11.48;7.03;;;-3.80;99.40;;;;;;2065519;28;20192;-61
2021/11/25 03:25:55;;;;;;;11.43;7.20;;;-3.80;99.60;;;;;;2065458;28;20573;-60
2021/11/25 03:26:56;;;;;;;12.73;7.32;;;-3.80;99.70;;;;;;2065193;28;20582;-61
2021/11/25 03:27:56;;;;;;;14.90;8.00;;;-3.90;99.80;;;;;;2065254;28;20198;-61
2021/11/25 03:29:00;;;;;;;13.73;8.03;;;-3.90;99.60;;;;;;2065155;28;20242;-61
2021/11/25 03:30:00;;;;;;;14.93;7.10;;;-3.90;99.40;;;;;;2065325;28;20243;-60
2021/11/25 03:31:01;;;;;;;14.90;7.40;;;-3.90;99.30;;;;;;2065534;28;20555;-61
2021/11/25 03:32:02;;;;;;;11.73;7.07;;;-3.80;99.20;;;;;;2065336;28;20180;-61
2021/11/25 03:33:05;;;;;;;16.05;7.60;;;-3.80;99.10;;;;;;2065501;28;20185;-61
2021/11/25 03:34:06;;;;;;;13.07;7.82;;;-3.80;99.10;;;;;;2065415;28;20178;-61
2021/11/25 03:35:07;;;;;;;14.13;7.73;;;-3.90;99.10;;;;;;2065282;28;20235;-61
2021/11/25 03:36:10;;;;;;;14.70;7.85;;;-3.90;99.10;;;;;;2056636;28;20537;-61
2021/11/25 03:37:10;;;;;;;12.35;7.70;;;-3.90;99.00;;;;;;2056639;28;20187;-60
2021/11/25 03:38:11;;;;;;;13.17;6.83;;;-3.80;99.00;;;;;;2065342;28;20184;-61
2021/11/25 03:39:12;;;;;;;13.37;8.30;;;-3.80;99.10;;;;;;2065293;28;20190;-61
2021/11/25 03:40:13;;;;;;;15.47;7.70;;;-3.80;98.90;;;;;;2065335;28;20183;-62
2021/11/25 03:41:15;;;;;;;11.13;7.13;;;-3.80;98.70;;;;;;2065244;28;20188;-59
2021/11/25 03:42:16;;;;;;;12.98;7.07;;;-3.80;98.60;;;;;;2065247;28;20198;-61
2021/11/25 03:43:17;;;;;;;14.13;7.63;;;-3.80;98.30;;;;;;2065261;28;20194;-61
2021/11/25 03:44:18;;;;;;;11.82;6.80;;;-3.80;98.10;;;;;;2064692;28;20187;-61
2021/11/25 03:45:19;;;;;;;14.23;7.87;;;-3.80;98.20;;;;;;2064976;28;20183;-61
2021/11/25 03:46:20;;;;;;;10.85;6.95;;;-3.80;98.20;;;;;;2065060;28;20664;-60
2021/11/25 03:47:21;;;;;;;13.07;7.00;;;-3.80;98.30;;;;;;2064963;28;20210;-61
2021/11/25 03:48:24;;;;;;;12.30;7.03;;;-3.80;98.40;;;;;;2065151;28;20186;-60
2021/11/25 03:49:24;;;;;;;12.63;6.80;;;-3.80;98.30;;;;;;2065218;28;20183;-61
2021/11/25 03:50:25;;;;;;;13.17;7.33;;;-3.80;98.20;;;;;;2065224;28;20218;-59
2021/11/25 03:51:26;;;;;;;12.07;7.07;;;-3.80;98.30;;;;;;2065185;28;20187;-59
2021/11/25 03:52:27;;;;;;;10.27;6.10;;;-3.80;98.30;;;;;;2065200;28;20191;-61
2021/11/25 03:53:28;;;;;;;12.27;7.00;;;-3.80;98.40;;;;;;2065139;28;20461;-61
2021/11/25 03:54:29;;;;;;;11.88;6.85;;;-3.80;98.30;;;;;;2056526;28;20179;-61
2021/11/25 03:55:30;;;;;;;11.93;6.57;;;-3.80;98.00;;;;;;2056660;28;20645;-61
2021/11/25 03:56:31;;;;;;;10.03;6.40;;;-3.80;98.00;;;;;;2065177;28;20556;-61
2021/11/25 03:57:31;;;;;;;10.50;6.50;;;-3.80;98.00;;;;;;2064820;28;20203;-59
2021/11/25 03:58:32;;;;;;;12.47;6.80;;;-3.80;98.00;;;;;;2065191;28;20186;-61
2021/11/25 03:59:33;;;;;;;10.10;6.43;;;-3.80;97.90;;;;;;2065228;28;20327;-61
2021/11/25 04:00:34;;;;;;;9.20;6.03;;;-3.80;97.90;;;;;;2065211;28;20171;-61
2021/11/25 04:01:34;;;;;;;13.10;6.70;;;-3.80;98.00;;;;;;2065090;28;20221;-62
2021/11/25 04:02:35;;;;;;;11.50;6.00;;;-3.80;98.00;;;;;;2065253;28;20187;-61
2021/11/25 04:03:37;;;;;;;10.03;6.13;;;-3.80;98.00;;;;;;2065104;28;20265;-61
2021/11/25 04:04:37;;;;;;;12.25;6.35;;;-3.80;97.70;;;;;;2065146;28;20175;-61
2021/11/25 04:05:38;;;;;;;10.73;6.20;;;-3.80;97.70;;;;;;2065118;28;20548;-60
2021/11/25 04:06:39;;;;;;;11.50;6.60;;;-3.80;97.60;;;;;;2065085;28;20209;-61
2021/11/25 04:07:40;;;;;;;12.33;6.70;;;-3.90;97.60;;;;;;2064688;28;20266;-61
2021/11/25 04:08:41;;;;;;;11.00;5.68;;;-3.80;98.00;;;;;;2065054;28;20318;-61
2021/11/25 04:09:42;;;;;;;11.73;6.37;;;-3.90;98.20;;;;;;2064945;28;20214;-61
2021/11/25 04:10:43;;;;;;;10.13;6.30;;;-3.90;98.40;;;;;;2056548;28;20179;-61
2021/11/25 04:11:44;;;;;;;11.88;6.65;;;-3.90;98.30;;;;;;2056495;28;20700;-60
2021/11/25 04:12:46;;;;;;;11.20;6.23;;;-3.80;98.40;;;;;;2065201;28;20189;-59
2021/11/25 04:13:47;;;;;;;11.75;6.72;;;-3.80;98.30;;;;;;2065220;28;20542;-58
2021/11/25 04:14:47;;;;;;;11.57;6.03;;;-3.90;98.10;;;;;;2056681;28;20195;-61
2021/11/25 04:15:48;;;;;;;9.20;5.83;;;-3.80;98.50;;;;;;2056549;28;20190;-58
2021/11/25 04:16:49;;;;;;;10.03;5.70;;;-3.80;97.90;;;;;;2056377;28;20180;-61
2021/11/25 04:17:50;;;;;;;9.57;5.77;;;-3.80;97.90;;;;;;2056553;28;20225;-61
2021/11/25 04:18:51;;;;;;;9.10;4.90;;;-3.80;97.90;;;;;;2065118;28;20170;-62
2021/11/25 04:19:52;;;;;;;10.60;5.90;;;-3.80;98.00;;;;;;2065111;28;20180;-61
2021/11/25 04:20:54;;;;;;;9.70;5.78;;;-3.80;98.10;;;;;;2065261;28;20176;-59
2021/11/25 04:21:55;;;;;;;12.15;6.38;;;-3.80;98.20;;;;;;2065113;28;20265;-61
2021/11/25 04:22:55;;;;;;;10.00;5.87;;;-3.80;98.10;;;;;;2065261;28;20186;-61
2021/11/25 04:23:56;;;;;;;10.53;5.60;;;-3.80;97.90;;;;;;2065135;28;20184;-62
2021/11/25 04:24:57;;;;;;;8.43;5.43;;;-3.80;97.80;;;;;;2065034;28;20172;-59
2021/11/25 04:25:58;;;;;;;9.40;5.75;;;-3.80;97.80;;;;;;2064952;28;20180;-62
2021/11/25 04:26:59;;;;;;;10.30;5.97;;;-3.80;97.90;;;;;;2064774;28;20184;-61
2021/11/25 04:28:03;;;;;;;8.23;4.97;;;-3.80;98.00;;;;;;2065080;28;20687;-61
2021/11/25 04:29:04;;;;;;;11.20;6.07;;;-3.70;98.10;;;;;;2065196;28;20326;-60
2021/11/25 04:30:47;;;;;;;11.02;6.03;;;-3.80;97.90;;;;;;2065010;28;20210;-61
2021/11/25 04:35:35;;;;;;;8.88;4.60;;;-3.70;98.20;;;;;;2065021;28;20168;-60
2021/11/25 04:36:36;;;;;;;9.20;5.13;;;-3.70;98.10;;;;;;2065023;28;20175;-61
2021/11/25 04:37:36;;;;;;;9.13;5.37;;;-3.70;98.00;;;;;;2064809;28;20202;-61
2021/11/25 04:38:37;;;;;;;10.37;5.77;;;-3.70;98.00;;;;;;2064962;28;20167;-61
2021/11/25 04:39:38;;;;;;;10.90;7.07;;;-3.70;97.90;;;;;;2065044;28;20612;-61
2021/11/25 04:40:44;;;;;;;11.40;7.00;;;-3.70;97.90;;;;;;2065111;28;20184;-61
2021/11/25 04:41:45;;;;;;;8.63;5.82;;;-3.70;98.00;;;;;;2065231;28;20171;-61
2021/11/25 04:42:46;;;;;;;10.60;6.25;;;-3.70;97.80;;;;;;2064940;28;20722;-61
2021/11/25 04:43:47;;;;;;;9.40;5.77;;;-3.70;97.60;;;;;;2065128;28;20194;-61
2021/11/25 04:44:48;;;;;;;11.33;6.50;;;-3.70;97.50;;;;;;2065010;28;20636;-63
2021/11/25 04:45:51;;;;;;;9.95;5.75;;;-3.80;97.20;;;;;;2065189;28;20188;-60
2021/11/25 04:46:52;;;;;;;10.32;5.97;;;-3.80;97.10;;;;;;2064636;28;20176;-62
2021/11/25 04:47:53;;;;;;;9.53;6.00;;;-3.80;97.20;;;;;;2064973;28;20192;-60
2021/11/25 04:48:53;;;;;;;10.40;5.40;;;-3.80;97.30;;;;;;2064888;28;20631;-61
2021/11/25 04:49:54;;;;;;;9.47;5.20;;;-3.80;97.30;;;;;;2065061;28;20210;-61
2021/11/25 04:50:55;;;;;;;7.97;5.13;;;-3.80;97.60;;;;;;2064952;28;20205;-61
2021/11/25 04:51:56;;;;;;;8.07;5.15;;;-3.80;97.90;;;;;;2064971;28;20680;-61
2021/11/25 04:52:57;;;;;;;9.03;4.83;;;-3.80;97.70;;;;;;2065004;28;20222;-61
2021/11/25 04:53:58;;;;;;;8.45;4.90;;;-3.80;97.80;;;;;;2065035;28;20177;-61
2021/11/25 04:54:59;;;;;;;7.30;4.20;;;-3.80;98.10;;;;;;2064756;28;20171;-60
2021/11/25 04:55:59;;;;;;;7.90;4.20;;;-3.80;98.30;;;;;;2064155;28;20190;-59
2021/11/25 04:57:00;;;;;;;7.90;4.63;;;-3.80;98.30;;;;;;2064578;28;20176;-61
2021/11/25 04:58:01;;;;;;;8.63;4.73;;;-3.70;98.30;;;;;;2065081;28;20317;-61
2021/11/25 04:59:02;;;;;;;6.20;4.20;;;-3.70;98.30;;;;;;2065009;28;20211;-59
2021/11/25 05:00:06;;;;;;;9.75;5.43;;;-3.70;98.20;;;;;;2065006;28;20174;-61
2021/11/25 05:01:06;;;;;;;8.50;5.22;;;-3.80;97.70;;;;;;2064965;28;20188;-61
2021/11/25 05:02:07;;;;;;;8.93;5.37;;;-3.80;97.80;;;;;;2064974;28;20187;-61
2021/11/25 05:03:08;;;;;;;10.03;5.47;;;-3.80;97.80;;;;;;2064984;28;20273;-60
2021/11/25 05:04:09;;;;;;;7.60;4.95;;;-3.80;97.70;;;;;;2065039;28;20668;-61
2021/11/25 05:05:11;;;;;;;9.20;5.80;;;-3.80;97.50;;;;;;2064905;28;20269;-61
2021/11/25 05:06:11;;;;;;;8.43;5.22;;;-3.80;97.40;;;;;;2064869;28;20679;-60
2021/11/25 05:07:12;;;;;;;8.47;5.37;;;-3.80;97.30;;;;;;2064679;28;20196;-62
2021/11/25 05:08:13;;;;;;;9.40;5.00;;;-3.80;97.40;;;;;;2064989;28;20435;-61
2021/11/25 05:09:14;;;;;;;8.40;5.27;;;-3.90;97.40;;;;;;2064991;28;20182;-61
2021/11/25 05:10:15;;;;;;;7.95;4.88;;;-3.80;97.40;;;;;;2064783;28;20716;-60
2021/11/25 05:11:16;;;;;;;9.20;4.90;;;-3.80;97.60;;;;;;2064963;28;20184;-61
2021/11/25 05:12:16;;;;;;;7.13;4.40;;;-3.90;97.30;;;;;;2064870;28;20583;-61
2021/11/25 05:13:17;;;;;;;8.03;4.13;;;-3.80;97.30;;;;;;2064850;28;20197;-61
2021/11/25 05:14:18;;;;;;;6.97;4.10;;;-3.90;97.30;;;;;;2064781;28;20657;-61
2021/11/25 05:15:18;;;;;;;8.30;4.30;;;-3.80;97.50;;;;;;2064947;28;20204;-61
2021/11/25 05:16:19;;;;;;;6.37;4.17;;;-3.90;97.60;;;;;;2065055;28;20657;-61
2021/11/25 05:17:20;;;;;;;5.10;3.53;;;-3.80;97.80;;;;;;2064730;28;20670;-59
2021/11/25 05:18:20;;;;;;;6.97;4.20;;;-3.80;97.80;;;;;;2064902;28;20183;-60
2021/11/25 05:19:21;;;;;;;6.60;3.97;;;-3.80;97.80;;;;;;2065060;28;20179;-59
2021/11/25 05:20:22;;;;;;;6.63;4.03;;;-3.80;97.90;;;;;;2064944;28;20183;-61